createdAt,value
2022-09-07T00:00:49.500Z,3.38
2022-09-07T00:03:17.577Z,3.45
2022-09-07T00:05:48.283Z,3.78
2022-09-07T00:08:17.590Z,4.78
2022-09-07T00:10:52.816Z,4.13
2022-09-07T00:13:20.886Z,3.90
2022-09-07T00:15:48.837Z,3.38
2022-09-07T00:18:16.707Z,3.30
2022-09-07T00:20:46.028Z,3.30
2022-09-07T00:23:14.278Z,4.00
2022-09-07T00:25:42.067Z,4.07
2022-09-07T00:28:10.450Z,3.75
2022-09-07T00:30:42.279Z,2.80
2022-09-07T00:33:10.927Z,2.90
2022-09-07T00:35:42.063Z,3.80
2022-09-07T00:38:11.278Z,3.22
2022-09-07T00:40:39.765Z,2.92
2022-09-07T00:43:08.504Z,3.22
2022-09-07T00:45:36.309Z,3.03
2022-09-07T00:48:08.240Z,3.20
2022-09-07T00:50:40.474Z,3.08
2022-09-07T00:53:15.119Z,3.67
2022-09-07T00:55:45.464Z,3.63
2022-09-07T00:58:14.548Z,3.90
2022-09-07T01:00:43.082Z,3.42
2022-09-07T01:03:12.978Z,3.55
2022-09-07T01:05:44.575Z,3.88
2022-09-07T01:08:14.854Z,3.47
2022-09-07T01:10:42.693Z,3.92
2022-09-07T01:13:10.558Z,3.40
2022-09-07T01:15:47.270Z,3.60
2022-09-07T01:18:27.028Z,3.85
2022-09-07T01:21:26.838Z,3.57
2022-09-07T01:24:29.627Z,3.30
2022-09-07T01:27:34.722Z,3.40
2022-09-07T01:30:07.369Z,3.20
2022-09-07T01:32:50.565Z,3.00
2022-09-07T01:35:26.383Z,4.05
2022-09-07T01:38:00.651Z,3.47
2022-09-07T01:40:40.680Z,3.75
2022-09-07T01:43:13.878Z,4.35
2022-09-07T01:45:45.690Z,3.67
2022-09-07T01:48:19.084Z,3.97
2022-09-07T01:50:53.347Z,3.55
2022-09-07T01:53:25.740Z,3.70
2022-09-07T01:55:58.120Z,3.92
2022-09-07T01:58:30.413Z,3.92
2022-09-07T02:01:04.579Z,3.50
2022-09-07T02:03:37.303Z,4.10
2022-09-07T02:06:10.487Z,4.50
2022-09-07T02:08:44.769Z,3.70
2022-09-07T02:11:15.941Z,4.35
2022-09-07T02:13:49.311Z,3.90
2022-09-07T02:16:23.077Z,3.88
2022-09-07T02:18:55.531Z,3.55
2022-09-07T02:21:30.154Z,3.83
2022-09-07T02:24:04.363Z,3.97
2022-09-07T02:26:33.536Z,3.95
2022-09-07T02:29:01.580Z,3.63
2022-09-07T02:31:31.300Z,4.78
2022-09-07T02:34:00.459Z,4.43
2022-09-07T02:36:31.661Z,3.55
2022-09-07T02:38:59.561Z,4.30
2022-09-07T02:41:31.941Z,4.13
2022-09-07T02:44:00.764Z,3.65
2022-09-07T02:46:45.555Z,4.18
2022-09-07T02:49:24.940Z,4.43
2022-09-07T02:52:02.449Z,4.22
2022-09-07T02:54:46.389Z,4.40
2022-09-07T02:57:24.005Z,3.90
2022-09-07T03:00:04.115Z,4.50
2022-09-07T03:02:44.193Z,4.63
2022-09-07T03:05:18.324Z,4.53
2022-09-07T03:07:49.562Z,4.43
2022-09-07T03:10:18.992Z,5.68
2022-09-07T03:12:49.108Z,4.22
2022-09-07T03:15:19.132Z,4.63
2022-09-07T03:17:48.968Z,4.28
2022-09-07T03:20:17.547Z,5.10
2022-09-07T03:22:45.454Z,5.10
2022-09-07T03:25:13.353Z,4.60
2022-09-07T03:27:41.324Z,4.47
2022-09-07T03:30:11.187Z,5.15
2022-09-07T03:32:39.984Z,4.78
2022-09-07T03:35:10.326Z,4.10
2022-09-07T03:37:38.923Z,4.82
2022-09-07T03:40:09.228Z,4.55
2022-09-07T03:42:37.700Z,4.18
2022-09-07T03:45:07.003Z,4.13
2022-09-07T03:47:34.954Z,4.70
2022-09-07T03:50:02.880Z,4.22
2022-09-07T03:52:32.022Z,4.38
2022-09-07T03:54:59.771Z,4.45
2022-09-07T03:57:27.621Z,4.85
2022-09-07T03:59:55.396Z,4.72
2022-09-07T04:02:23.219Z,4.53
2022-09-07T04:04:51.111Z,4.53
2022-09-07T04:07:18.952Z,4.20
2022-09-07T04:09:48.083Z,4.72
2022-09-07T04:12:15.933Z,4.45
2022-09-07T04:14:43.734Z,4.60
2022-09-07T04:17:11.580Z,5.07
2022-09-07T04:19:39.618Z,5.28
2022-09-07T04:22:07.414Z,4.93
2022-09-07T04:24:35.214Z,4.70
2022-09-07T04:27:04.487Z,5.07
2022-09-07T04:29:32.315Z,5.68
2022-09-07T04:32:00.086Z,6.18
2022-09-07T04:34:28.128Z,5.30
2022-09-07T04:36:55.943Z,5.10
2022-09-07T04:39:23.740Z,5.20
2022-09-07T04:41:51.554Z,4.20
2022-09-07T04:44:20.681Z,5.22
2022-09-07T04:46:48.510Z,5.38
2022-09-07T04:49:16.299Z,4.53
2022-09-07T04:51:44.393Z,4.82
2022-09-07T04:54:12.454Z,4.65
2022-09-07T04:56:40.348Z,5.10
2022-09-07T04:59:08.158Z,5.40
2022-09-07T05:01:37.565Z,4.60
2022-09-07T05:04:06.000Z,5.22
2022-09-07T05:06:33.834Z,5.95
2022-09-07T05:09:01.945Z,5.65
2022-09-07T05:11:30.251Z,5.90
2022-09-07T05:13:58.616Z,5.20
2022-09-07T05:16:27.799Z,5.47
2022-09-07T05:18:59.400Z,4.38
2022-09-07T05:21:29.350Z,4.82
2022-09-07T05:23:58.833Z,5.30
2022-09-07T05:26:28.620Z,4.57
2022-09-07T05:31:44.896Z,5.13
2022-09-07T05:34:31.039Z,4.57
2022-09-07T05:43:05.843Z,4.18
2022-09-07T05:45:34.340Z,4.07
2022-09-07T05:50:58.298Z,3.78
2022-09-07T05:53:38.714Z,3.67
2022-09-07T05:56:20.153Z,4.15
2022-09-07T05:58:51.033Z,3.30
2022-09-07T06:01:24.600Z,3.92
2022-09-07T06:03:59.973Z,3.75
2022-09-07T06:06:36.699Z,3.42
2022-09-07T06:38:37.366Z,3.53
2022-09-07T06:47:16.179Z,3.17
2022-09-07T06:49:50.907Z,3.17
2022-09-07T07:56:03.906Z,1.65
2022-09-07T07:58:33.282Z,1.60
2022-09-07T08:01:03.354Z,1.85
2022-09-07T08:03:31.687Z,1.35
2022-09-07T08:06:08.311Z,1.85
2022-09-07T08:08:39.200Z,1.60
2022-09-07T08:13:36.678Z,2.20
2022-09-07T08:16:05.502Z,1.75
2022-09-07T08:18:34.960Z,1.48
2022-09-07T08:21:04.141Z,1.80
2022-09-07T08:23:33.321Z,1.95
2022-09-07T08:26:03.190Z,1.37
2022-09-07T08:28:33.627Z,1.50
2022-09-07T08:31:05.914Z,1.92
2022-09-07T08:33:35.635Z,1.50
2022-09-07T08:36:05.801Z,1.58
2022-09-07T08:41:20.942Z,1.27
2022-09-07T08:43:53.745Z,1.45
2022-09-07T08:46:30.744Z,1.85
2022-09-07T08:49:01.149Z,1.50
2022-09-07T08:51:38.353Z,1.35
2022-09-07T08:54:07.548Z,1.20
2022-09-07T08:57:20.193Z,1.45
2022-09-07T08:59:36.947Z,1.30
2022-09-07T09:07:53.749Z,1.50
2022-09-07T09:10:33.143Z,1.55
2022-09-07T09:13:12.341Z,1.52
2022-09-07T09:15:53.043Z,1.70
2022-09-07T09:18:34.379Z,1.75
2022-09-07T09:21:03.260Z,1.50
2022-09-07T09:23:41.313Z,1.98
2022-09-07T09:26:15.536Z,1.30
2022-09-07T09:28:45.079Z,1.30
2022-09-07T09:31:19.579Z,1.30
2022-09-07T09:34:10.251Z,1.45
2022-09-07T09:36:44.282Z,1.75
2022-09-07T09:39:27.063Z,2.38
2022-09-07T09:41:56.431Z,1.73
2022-09-07T09:44:31.245Z,1.47
2022-09-07T09:49:47.270Z,2.00
2022-09-07T09:52:42.251Z,1.70
2022-09-07T09:55:34.397Z,2.15
2022-09-07T10:04:04.677Z,1.75
2022-09-07T10:06:34.335Z,1.30
2022-09-07T10:09:03.440Z,1.45
2022-09-07T10:14:35.050Z,1.48
2022-09-07T10:17:13.320Z,1.80
2022-09-07T10:19:42.845Z,1.50
2022-09-07T10:22:32.139Z,1.85
2022-09-07T10:25:01.345Z,2.22
2022-09-07T10:27:35.625Z,1.70
2022-09-07T10:30:07.770Z,1.70
2022-09-07T10:32:56.468Z,1.85
2022-09-07T10:35:29.029Z,1.80
2022-09-07T10:38:05.550Z,1.90
2022-09-07T10:40:36.742Z,2.08
2022-09-07T10:43:24.546Z,2.38
2022-09-07T10:46:10.143Z,1.58
2022-09-07T10:48:52.374Z,1.42
2022-09-07T10:51:28.305Z,1.67
2022-09-07T10:57:04.427Z,1.38
2022-09-07T11:03:24.898Z,1.30
2022-09-07T11:05:40.911Z,1.30
2022-09-07T11:08:27.149Z,1.45
2022-09-07T11:11:03.300Z,1.10
2022-09-07T11:13:44.956Z,1.17
2022-09-07T11:22:18.391Z,1.05
2022-09-07T11:27:46.802Z,0.98
2022-09-07T11:30:20.765Z,1.00
2022-09-07T11:32:58.575Z,1.00
2022-09-07T11:35:36.100Z,1.10
2022-09-07T11:38:15.595Z,1.00
2022-09-07T11:40:53.253Z,1.07
2022-09-07T11:43:25.724Z,1.13
2022-09-07T11:45:57.805Z,1.00
2022-09-07T11:48:30.837Z,1.40
2022-09-07T11:51:01.654Z,1.13
2022-09-07T11:53:35.103Z,1.42
2022-09-07T11:56:08.488Z,0.88
2022-09-07T11:59:03.162Z,1.27
2022-09-07T12:01:42.076Z,1.23
2022-09-07T12:04:35.782Z,1.33
2022-09-07T12:07:41.644Z,1.10
2022-09-07T12:11:06.344Z,1.00
2022-09-07T12:13:56.801Z,0.90
2022-09-07T12:16:41.617Z,1.17
2022-09-07T12:19:17.744Z,0.90
2022-09-07T12:21:50.326Z,1.73
2022-09-07T12:24:42.814Z,0.80
2022-09-07T12:27:27.918Z,1.10
2022-09-07T12:30:30.348Z,1.17
2022-09-07T12:33:06.002Z,1.00
2022-09-07T12:35:40.619Z,1.20
2022-09-07T12:38:59.490Z,1.20
2022-09-07T12:41:43.620Z,1.00
2022-09-07T12:44:29.226Z,1.30
2022-09-07T12:47:00.228Z,1.00
2022-09-07T12:49:55.568Z,1.13
2022-09-07T12:52:49.185Z,0.90
2022-09-07T12:56:15.605Z,1.02
2022-09-07T12:58:38.719Z,1.10
2022-09-07T13:01:19.536Z,0.90
2022-09-07T13:04:03.539Z,1.20
2022-09-07T13:07:05.571Z,0.88
2022-09-07T13:09:35.838Z,0.82
2022-09-07T13:15:32.476Z,1.02
2022-09-07T13:18:03.452Z,0.93
2022-09-07T13:20:36.193Z,1.00
2022-09-07T13:23:24.531Z,0.82
2022-09-07T13:25:55.999Z,0.50
2022-09-07T13:28:40.433Z,1.05
2022-09-07T13:31:25.944Z,0.80
2022-09-07T13:33:57.127Z,1.15
2022-09-07T13:36:35.732Z,0.95
2022-09-07T13:39:09.596Z,0.90
2022-09-07T13:41:43.070Z,0.90
2022-09-07T13:44:25.665Z,0.80
2022-09-07T13:47:26.522Z,0.95
2022-09-07T13:50:12.278Z,0.57
2022-09-07T13:53:01.777Z,0.70
2022-09-07T13:55:39.033Z,1.13
2022-09-07T13:58:17.957Z,0.75
2022-09-07T14:01:00.438Z,0.90
2022-09-07T14:04:23.573Z,0.70
2022-09-07T14:07:02.955Z,0.70
2022-09-07T14:09:34.914Z,0.95
2022-09-07T14:12:03.337Z,0.80
2022-09-07T14:14:44.721Z,0.80
2022-09-07T14:17:17.644Z,0.90
2022-09-07T14:19:49.239Z,0.95
2022-09-07T14:22:21.066Z,0.57
2022-09-07T14:24:52.589Z,1.00
2022-09-07T14:27:23.603Z,1.00
2022-09-07T14:29:52.381Z,1.15
2022-09-07T14:32:27.168Z,0.70
2022-09-07T14:34:57.480Z,1.15
2022-09-07T14:37:34.692Z,0.75
2022-09-07T14:40:04.932Z,0.90
2022-09-07T14:42:34.150Z,0.60
2022-09-07T14:46:02.904Z,0.60
2022-09-07T14:53:33.609Z,0.80
2022-09-07T14:55:36.987Z,0.88
2022-09-07T14:58:37.918Z,0.80
2022-09-07T15:01:37.790Z,1.70
2022-09-07T15:05:20.540Z,1.00
2022-09-07T15:08:01.941Z,0.70
2022-09-07T15:11:32.934Z,1.00
2022-09-07T15:13:34.421Z,0.75
2022-09-07T15:16:09.184Z,1.00
2022-09-07T15:18:57.296Z,1.00
2022-09-07T15:21:29.540Z,1.17
2022-09-07T15:24:07.920Z,0.80
2022-09-07T15:29:32.087Z,1.10
2022-09-07T15:34:35.793Z,0.90
2022-09-07T15:38:00.315Z,0.57
2022-09-07T15:39:54.353Z,0.70
2022-09-07T15:45:11.194Z,0.70
2022-09-07T15:47:46.986Z,0.93
2022-09-07T15:50:19.373Z,0.52
2022-09-07T15:52:47.559Z,0.73
2022-09-07T15:55:17.899Z,0.70
2022-09-07T15:57:56.779Z,0.70
2022-09-07T16:00:41.624Z,0.82
2022-09-07T16:04:31.821Z,0.75
2022-09-07T16:10:40.404Z,0.90
2022-09-07T16:13:16.698Z,0.60
2022-09-07T16:16:11.061Z,1.00
2022-09-07T16:19:07.356Z,0.60
2022-09-07T16:25:58.608Z,0.85
2022-09-07T16:28:34.498Z,0.95
2022-09-07T16:31:25.236Z,0.70
2022-09-07T16:33:58.223Z,0.90
2022-09-07T16:36:29.077Z,1.02
2022-09-07T16:39:01.233Z,1.38
2022-09-07T16:41:39.070Z,0.68
2022-09-07T16:44:19.491Z,0.82
2022-09-07T16:46:50.967Z,0.93
2022-09-07T16:49:49.873Z,0.80
2022-09-07T16:52:47.050Z,0.95
2022-09-07T16:55:28.473Z,1.00
2022-09-07T17:00:53.778Z,1.00
2022-09-07T17:03:24.190Z,0.77
2022-09-07T17:06:03.621Z,0.90
2022-09-07T17:08:31.887Z,0.90
2022-09-07T17:11:05.844Z,0.60
2022-09-07T17:13:40.142Z,0.80
2022-09-07T17:16:11.242Z,1.23
2022-09-07T17:21:29.853Z,0.90
2022-09-07T17:23:57.880Z,0.73
2022-09-07T17:26:27.435Z,1.27
2022-09-07T17:29:01.711Z,0.80
2022-09-07T17:34:20.474Z,1.33
2022-09-07T17:36:48.803Z,1.20
2022-09-07T17:39:19.081Z,1.20
2022-09-07T17:41:48.707Z,1.15
2022-09-07T17:44:17.922Z,1.40
2022-09-07T17:46:46.195Z,1.15
2022-09-07T17:49:16.688Z,0.90
2022-09-07T17:51:45.801Z,0.88
2022-09-07T17:54:17.787Z,1.00
2022-09-07T17:56:46.425Z,1.20
2022-09-07T18:02:04.067Z,1.38
2022-09-07T18:04:31.948Z,1.37
2022-09-07T18:06:59.790Z,1.38
2022-09-07T18:09:27.791Z,1.30
2022-09-07T18:11:55.868Z,1.35
2022-09-07T18:14:23.860Z,1.15
2022-09-07T18:16:51.923Z,1.38
2022-09-07T18:19:21.492Z,1.48
2022-09-07T18:21:50.623Z,1.50
2022-09-07T18:24:22.274Z,1.20
2022-09-07T18:26:52.672Z,1.08
2022-09-07T18:29:29.420Z,1.30
2022-09-07T18:32:02.636Z,1.98
2022-09-07T18:34:32.602Z,0.93
2022-09-07T18:37:01.502Z,1.30
2022-09-07T18:39:33.728Z,1.65
2022-09-07T18:42:02.022Z,1.38
2022-09-07T18:47:27.541Z,1.20
2022-09-07T18:49:58.135Z,1.20
2022-09-07T18:55:15.443Z,1.40
2022-09-07T18:57:44.767Z,1.48
2022-09-07T19:00:14.216Z,1.20
2022-09-07T19:02:42.479Z,1.45
2022-09-07T19:08:03.268Z,1.20
2022-09-07T19:10:33.814Z,1.13
2022-09-07T19:13:01.661Z,1.40
2022-09-07T19:15:29.560Z,1.40
2022-09-07T19:17:58.594Z,1.80
2022-09-07T19:20:29.408Z,1.58
2022-09-07T19:22:58.320Z,1.30
2022-09-07T19:25:26.117Z,1.90
2022-09-07T19:27:54.140Z,1.58
2022-09-07T19:30:22.265Z,1.40
2022-09-07T19:32:50.407Z,1.52
2022-09-07T19:35:18.249Z,1.67
2022-09-07T19:37:49.283Z,1.33
2022-09-07T19:40:19.454Z,1.45
2022-09-07T19:42:47.604Z,1.58
2022-09-07T19:45:15.995Z,1.10
2022-09-07T19:47:43.863Z,0.85
2022-09-07T19:50:12.590Z,1.75
2022-09-07T19:52:40.449Z,1.33
2022-09-07T19:55:10.550Z,1.23
2022-09-07T19:57:38.557Z,1.20
2022-09-07T20:00:07.612Z,1.30
2022-09-07T20:02:40.189Z,1.73
2022-09-07T20:05:08.734Z,1.63
2022-09-07T20:07:36.493Z,1.50
2022-09-07T20:10:04.827Z,1.15
2022-09-07T20:12:34.133Z,1.27
2022-09-07T20:15:02.001Z,1.20
2022-09-07T20:17:35.066Z,1.60
2022-09-07T20:20:04.610Z,1.33
2022-09-07T20:22:32.941Z,1.27
2022-09-07T20:25:00.825Z,1.08
2022-09-07T20:27:30.564Z,1.70
2022-09-07T20:30:00.369Z,1.48
2022-09-07T20:32:28.964Z,1.85
2022-09-07T20:34:57.254Z,1.38
2022-09-07T20:37:27.458Z,1.73
2022-09-07T20:39:55.622Z,1.40
2022-09-07T20:42:23.800Z,1.40
2022-09-07T20:44:51.611Z,1.30
2022-09-07T20:47:20.908Z,1.10
2022-09-07T20:49:49.760Z,1.75
2022-09-07T20:52:17.695Z,1.50
2022-09-07T20:54:45.480Z,1.42
2022-09-07T20:57:13.429Z,1.40
2022-09-07T20:59:41.285Z,1.50
2022-09-07T21:02:11.205Z,1.60
2022-09-07T21:04:40.370Z,1.58
2022-09-07T21:07:08.273Z,1.73
2022-09-07T21:09:36.133Z,1.77
2022-09-07T21:12:04.452Z,1.50
2022-09-07T21:14:32.260Z,1.60
2022-09-07T21:17:00.114Z,1.40
2022-09-07T21:19:28.587Z,2.58
2022-09-07T21:21:57.703Z,1.70
2022-09-07T21:24:25.841Z,2.05
2022-09-07T21:26:53.622Z,1.70
2022-09-07T21:29:23.257Z,1.50
2022-09-07T21:31:53.468Z,1.52
2022-09-07T21:34:21.832Z,1.60
2022-09-07T21:36:49.734Z,1.88
2022-09-07T21:39:19.351Z,1.90
2022-09-07T21:41:47.151Z,1.60
2022-09-07T21:44:16.565Z,1.60
2022-09-07T21:46:45.114Z,1.85
2022-09-07T21:49:13.267Z,1.48
2022-09-07T21:51:41.076Z,1.90
2022-09-07T21:54:09.592Z,1.55
2022-09-07T21:56:41.067Z,1.58
2022-09-07T21:59:12.256Z,1.75
2022-09-07T22:01:40.816Z,1.40
2022-09-07T22:04:08.687Z,1.50
2022-09-07T22:06:37.647Z,1.60
2022-09-07T22:09:05.916Z,1.75
2022-09-07T22:11:33.985Z,1.60
2022-09-07T22:14:04.862Z,1.80
2022-09-07T22:16:34.255Z,1.90
2022-09-07T22:19:02.594Z,1.70
2022-09-07T22:21:31.858Z,1.42
2022-09-07T22:24:01.776Z,1.70
2022-09-07T22:26:31.085Z,1.40
2022-09-07T22:28:59.609Z,1.60
2022-09-07T22:31:30.982Z,1.75
2022-09-07T22:34:00.463Z,1.48
2022-09-07T22:36:30.296Z,2.25
2022-09-07T22:39:00.387Z,1.70
2022-09-07T22:41:30.016Z,1.77
2022-09-07T22:43:58.186Z,2.60
2022-09-07T22:46:29.818Z,1.90
2022-09-07T22:48:59.657Z,1.67
2022-09-07T22:51:28.266Z,1.73
2022-09-07T22:53:56.469Z,2.00
2022-09-07T22:56:27.452Z,1.77
2022-09-07T22:58:58.273Z,1.90
2022-09-07T23:01:28.421Z,2.10
2022-09-07T23:03:57.284Z,1.90
2022-09-07T23:06:27.228Z,2.22
2022-09-07T23:08:57.575Z,1.95
2022-09-07T23:13:53.988Z,1.45
2022-09-07T23:16:22.728Z,1.95
2022-09-07T23:18:52.397Z,1.60
2022-09-07T23:21:20.732Z,1.97
2022-09-07T23:23:52.479Z,1.73
2022-09-07T23:26:21.003Z,1.52
2022-09-07T23:28:52.465Z,1.50
2022-09-07T23:31:20.579Z,2.08
2022-09-07T23:33:48.404Z,1.50
2022-09-07T23:36:18.499Z,1.95
2022-09-07T23:38:46.546Z,1.92
2022-09-07T23:41:14.916Z,1.80
2022-09-07T23:43:42.881Z,2.00
2022-09-07T23:46:12.021Z,1.98
2022-09-07T23:48:40.170Z,1.77
2022-09-07T23:51:07.996Z,2.03
2022-09-07T23:53:37.615Z,2.00
2022-09-07T23:56:06.122Z,2.50
2022-09-07T23:58:34.083Z,2.30
